Time;durP1;ratioP1;P1;durP2;ratioP2;P2;SDS_P1;SDS_P2;PMS_P1;PMS_P2;Temp;Humidity;BMP_temperature;BMP_pressure;BME280_temperature;BME280_humidity;BME280_pressure;Samples;Min_cycle;Max_cycle;Signal;HPM_P1;HPM_P2
2021/08/09 00:01:09;;;;;;;20.05;6.70;;;14.00;99.90;;;;;;5059413;28;20052;-69
2021/08/09 00:03:35;;;;;;;20.25;6.38;;;14.10;99.90;;;;;;5061590;28;20048;-69
2021/08/09 00:06:01;;;;;;;16.52;4.93;;;14.00;99.90;;;;;;5060863;28;20045;-69
2021/08/09 00:08:26;;;;;;;19.00;6.25;;;14.00;99.90;;;;;;5058157;28;20045;-68
2021/08/09 00:10:52;;;;;;;15.45;5.40;;;13.90;99.90;;;;;;5063020;28;20282;-67
2021/08/09 00:13:18;;;;;;;22.65;6.00;;;13.90;99.90;;;;;;5058903;28;20049;-67
2021/08/09 00:15:44;;;;;;;23.10;7.38;;;14.00;99.90;;;;;;5062299;28;20048;-67
2021/08/09 00:18:09;;;;;;;14.52;6.43;;;13.90;99.90;;;;;;5056588;28;21179;-67
2021/08/09 00:20:35;;;;;;;14.25;5.88;;;13.90;99.90;;;;;;5062058;28;20052;-67
2021/08/09 00:23:01;;;;;;;25.45;6.47;;;13.90;99.90;;;;;;5059048;28;20048;-67
2021/08/09 00:25:26;;;;;;;21.75;6.10;;;13.90;99.90;;;;;;5062050;28;20060;-67
2021/08/09 00:27:52;;;;;;;23.08;6.68;;;13.90;99.90;;;;;;5053602;28;20583;-67
2021/08/09 00:30:18;;;;;;;20.17;7.20;;;13.90;99.90;;;;;;5059445;28;20048;-67
2021/08/09 00:32:44;;;;;;;18.70;6.70;;;13.90;99.90;;;;;;5062112;28;20060;-67
2021/08/09 00:35:10;;;;;;;17.80;6.28;;;13.90;99.90;;;;;;5062548;28;20091;-67
2021/08/09 00:37:36;;;;;;;14.55;5.90;;;13.90;99.90;;;;;;5062102;28;20100;-67
2021/08/09 00:40:04;;;;;;;23.35;7.20;;;13.90;99.90;;;;;;5054814;28;20050;-67
2021/08/09 00:42:29;;;;;;;22.67;8.15;;;13.90;99.90;;;;;;5062831;28;20131;-68
2021/08/09 00:44:55;;;;;;;27.85;8.10;;;13.90;99.90;;;;;;5053445;28;20077;-68
2021/08/09 00:47:21;;;;;;;19.92;6.97;;;13.90;99.90;;;;;;5057471;28;20052;-68
2021/08/09 00:49:46;;;;;;;22.10;6.95;;;13.90;99.90;;;;;;5056292;28;20048;-68
2021/08/09 00:52:13;;;;;;;29.92;8.90;;;13.90;99.90;;;;;;5058806;28;20332;-69
2021/08/09 00:54:39;;;;;;;20.10;7.32;;;13.90;99.90;;;;;;5057512;28;20037;-69
2021/08/09 00:57:05;;;;;;;15.77;6.25;;;13.90;99.90;;;;;;5056761;28;20056;-70
2021/08/09 00:59:31;;;;;;;16.98;6.55;;;13.90;99.90;;;;;;5058908;28;20057;-68
2021/08/09 01:01:57;;;;;;;18.75;6.72;;;13.90;99.90;;;;;;5057390;28;20053;-68
2021/08/09 01:04:23;;;;;;;19.17;6.70;;;13.90;99.90;;;;;;5060871;28;20051;-68
2021/08/09 01:06:49;;;;;;;19.58;6.90;;;13.80;99.90;;;;;;5053396;28;20045;-67
2021/08/09 01:09:40;;;;;;;20.70;6.75;;;13.80;99.90;;;;;;5060555;28;20071;-67
2021/08/09 01:12:28;;;;;;;18.33;5.72;;;13.80;99.90;;;;;;5056415;28;20053;-67
2021/08/09 01:15:16;;;;;;;23.67;6.22;;;13.80;99.90;;;;;;5046172;28;20053;-67
2021/08/09 01:17:44;;;;;;;17.90;4.88;;;13.80;99.90;;;;;;5057115;28;20522;-67
2021/08/09 01:20:34;;;;;;;15.93;6.78;;;13.80;99.90;;;;;;5055441;28;20046;-67
2021/08/09 01:23:37;;;;;;;16.95;6.65;;;13.70;99.90;;;;;;5058401;28;20045;-67
2021/08/09 01:26:39;;;;;;;10.50;5.18;;;13.70;99.90;;;;;;5051436;28;20508;-67
2021/08/09 01:29:10;;;;;;;13.18;4.72;;;13.70;99.90;;;;;;5058889;28;20045;-67
2021/08/09 01:31:44;;;;;;;16.55;5.20;;;13.70;99.90;;;;;;5050996;28;20139;-67
2021/08/09 01:34:11;;;;;;;12.07;4.90;;;13.70;99.90;;;;;;5059002;28;20045;-66
2021/08/09 01:36:44;;;;;;;20.77;6.80;;;13.60;99.90;;;;;;5050731;28;20049;-66
2021/08/09 01:39:12;;;;;;;10.82;5.10;;;13.60;99.90;;;;;;5057142;28;20063;-66
2021/08/09 01:41:40;;;;;;;10.73;4.72;;;13.60;99.90;;;;;;5053670;28;20045;-66
2021/08/09 01:44:06;;;;;;;14.88;5.00;;;13.60;99.90;;;;;;5057307;28;20045;-67
2021/08/09 01:46:33;;;;;;;16.67;5.50;;;13.60;99.90;;;;;;5049701;28;20045;-67
2021/08/09 01:49:03;;;;;;;15.50;5.20;;;13.60;99.90;;;;;;5056159;28;20044;-66
2021/08/09 01:51:29;;;;;;;17.20;6.03;;;13.60;99.90;;;;;;5057913;28;20081;-67
2021/08/09 01:53:55;;;;;;;15.73;5.88;;;13.60;99.90;;;;;;5055093;28;20495;-67
2021/08/09 01:56:21;;;;;;;14.43;5.40;;;13.60;99.90;;;;;;5051979;28;20041;-67
2021/08/09 01:58:48;;;;;;;18.42;6.65;;;13.60;99.90;;;;;;5056198;28;20049;-67
2021/08/09 02:01:14;;;;;;;19.98;7.75;;;13.60;99.90;;;;;;5055361;28;20045;-67
2021/08/09 02:03:40;;;;;;;15.63;6.88;;;13.60;99.90;;;;;;5056534;28;20045;-67
2021/08/09 02:06:06;;;;;;;16.15;8.48;;;13.60;99.90;;;;;;5053484;28;20053;-66
2021/08/09 02:08:34;;;;;;;28.27;8.85;;;13.60;99.90;;;;;;5050628;28;20045;-67
2021/08/09 02:11:26;;;;;;;;;;;13.60;99.90;;;;;;5057614;28;20065;-66
2021/08/09 02:14:03;;;;;;;20.00;7.55;;;13.60;99.90;;;;;;5055955;28;19920;-66
2021/08/09 02:16:43;;;;;;;18.13;8.20;;;13.60;99.90;;;;;;5054634;28;20045;-67
2021/08/09 02:19:17;;;;;;;24.48;7.55;;;13.60;99.90;;;;;;5055513;28;20073;-67
2021/08/09 02:21:51;;;;;;;25.27;8.43;;;13.60;99.90;;;;;;5061966;28;20049;-67
2021/08/09 02:24:27;;;;;;;28.50;9.25;;;13.60;99.90;;;;;;5049828;28;20040;-67
2021/08/09 02:27:16;;;;;;;24.30;8.85;;;13.50;99.90;;;;;;5062224;28;20049;-67
2021/08/09 02:29:45;;;;;;;;;;;13.50;99.90;;;;;;5051202;28;20056;-67
2021/08/09 02:32:12;;;;;;;23.73;9.97;;;13.50;99.90;;;;;;5062131;28;19950;-67
2021/08/09 02:34:40;;;;;;;28.10;8.30;;;13.60;99.90;;;;;;5057053;28;20041;-67
2021/08/09 02:37:08;;;;;;;22.33;9.02;;;13.50;99.90;;;;;;5061473;28;20041;-67
2021/08/09 02:39:37;;;;;;;28.25;8.45;;;13.60;99.90;;;;;;5064721;28;20378;-68
2021/08/09 02:42:03;;;;;;;24.55;7.95;;;13.50;99.90;;;;;;5061548;28;20071;-67
2021/08/09 02:44:30;;;;;;;24.15;8.00;;;13.60;99.90;;;;;;5063455;28;20047;-67
2021/08/09 02:46:59;;;;;;;19.58;7.93;;;13.60;99.90;;;;;;5060824;28;20142;-67
2021/08/09 02:49:25;;;;;;;22.92;7.50;;;13.50;99.90;;;;;;5056578;28;20057;-67
2021/08/09 02:51:52;;;;;;;24.90;7.65;;;13.60;99.90;;;;;;5057738;28;20061;-67
2021/08/09 02:54:20;;;;;;;20.40;7.23;;;13.60;99.90;;;;;;5066062;28;20045;-67
2021/08/09 02:56:46;;;;;;;25.85;7.05;;;13.60;99.90;;;;;;5060463;28;20320;-67
2021/08/09 02:59:13;;;;;;;22.33;8.43;;;13.60;99.90;;;;;;5059098;28;20037;-67
2021/08/09 03:01:40;;;;;;;21.08;7.30;;;13.60;99.90;;;;;;5054663;28;20045;-67
2021/08/09 03:04:10;;;;;;;24.08;7.63;;;13.70;99.90;;;;;;5060242;28;20049;-67
2021/08/09 03:06:37;;;;;;;32.28;9.00;;;13.70;99.90;;;;;;5053416;28;20041;-67
2021/08/09 03:09:05;;;;;;;27.80;8.98;;;13.70;99.90;;;;;;5060832;28;20106;-67
2021/08/09 03:11:33;;;;;;;24.83;8.57;;;13.70;99.90;;;;;;5053288;28;20052;-67
2021/08/09 03:13:59;;;;;;;25.75;8.88;;;13.80;99.90;;;;;;5060605;28;20440;-67
2021/08/09 03:16:24;;;;;;;21.75;8.90;;;13.80;99.90;;;;;;5052002;28;20049;-66
2021/08/09 03:18:50;;;;;;;23.65;8.95;;;13.80;99.90;;;;;;5049227;28;20060;-67
2021/08/09 03:21:16;;;;;;;24.10;8.95;;;13.70;99.90;;;;;;5052788;28;20048;-67
2021/08/09 03:23:42;;;;;;;29.25;9.52;;;13.80;99.90;;;;;;5060322;28;20053;-67
2021/08/09 03:26:09;;;;;;;20.75;9.38;;;13.70;99.90;;;;;;5052244;28;20124;-67
2021/08/09 03:28:36;;;;;;;20.30;8.70;;;13.70;99.90;;;;;;5064105;28;20044;-67
2021/08/09 03:31:03;;;;;;;21.15;7.97;;;13.70;99.90;;;;;;5051747;28;20119;-67
2021/08/09 03:33:30;;;;;;;24.13;8.18;;;13.70;99.90;;;;;;5058545;28;20053;-67
2021/08/09 03:35:56;;;;;;;32.87;10.10;;;13.60;99.90;;;;;;5063322;28;20048;-67
2021/08/09 03:38:22;;;;;;;26.50;9.45;;;13.70;99.90;;;;;;5065094;28;20052;-67
2021/08/09 03:40:48;;;;;;;22.65;8.93;;;13.80;99.90;;;;;;5061221;28;20045;-67
2021/08/09 03:43:14;;;;;;;24.15;8.77;;;13.60;99.90;;;;;;5060903;28;20056;-67
2021/08/09 03:45:40;;;;;;;21.25;8.15;;;13.60;99.90;;;;;;5061010;28;20095;-67
2021/08/09 03:48:10;;;;;;;30.80;7.95;;;13.60;99.90;;;;;;5053833;28;20048;-67
2021/08/09 03:50:37;;;;;;;15.25;7.50;;;13.60;99.90;;;;;;5058146;28;20080;-67
2021/08/09 03:53:05;;;;;;;25.45;8.88;;;13.60;99.90;;;;;;5065052;28;20666;-67
2021/08/09 03:55:31;;;;;;;32.58;9.35;;;13.60;99.90;;;;;;5060228;28;20048;-67
2021/08/09 03:57:57;;;;;;;30.77;8.82;;;13.60;99.90;;;;;;5055320;28;20096;-67
2021/08/09 04:00:23;;;;;;;25.63;8.18;;;13.60;99.90;;;;;;5057857;28;20045;-67
2021/08/09 04:02:48;;;;;;;24.70;7.88;;;13.50;99.90;;;;;;5057162;28;20056;-68
2021/08/09 04:05:14;;;;;;;26.83;8.40;;;13.60;99.90;;;;;;5055463;28;20477;-68
2021/08/09 04:07:40;;;;;;;26.42;8.68;;;13.60;99.90;;;;;;5059032;28;20055;-67
2021/08/09 04:10:07;;;;;;;25.58;6.70;;;13.60;99.90;;;;;;5057641;28;20045;-67
2021/08/09 04:12:33;;;;;;;17.48;6.53;;;13.50;99.90;;;;;;5059898;28;20041;-67
2021/08/09 04:14:59;;;;;;;24.20;7.00;;;13.50;99.90;;;;;;5053252;28;20057;-68
2021/08/09 04:17:25;;;;;;;29.20;7.28;;;13.50;99.90;;;;;;5060102;28;20072;-67
2021/08/09 04:19:51;;;;;;;25.73;7.30;;;13.50;99.90;;;;;;5053213;28;20505;-68
2021/08/09 04:22:17;;;;;;;23.73;8.13;;;13.50;99.90;;;;;;5058698;28;20108;-67
2021/08/09 04:24:42;;;;;;;32.03;8.88;;;13.50;99.90;;;;;;5057626;28;20037;-67
2021/08/09 04:27:08;;;;;;;19.85;7.63;;;13.50;99.90;;;;;;5059264;28;20041;-67
2021/08/09 04:29:34;;;;;;;29.05;8.45;;;13.50;99.90;;;;;;5062756;28;20040;-67
2021/08/09 04:32:00;;;;;;;20.95;7.18;;;13.50;99.90;;;;;;5057901;28;20052;-68
2021/08/09 04:34:26;;;;;;;20.65;7.22;;;13.50;99.90;;;;;;5051770;28;20048;-67
2021/08/09 04:36:51;;;;;;;36.17;8.18;;;13.50;99.90;;;;;;5057281;28;20049;-68
2021/08/09 04:39:17;;;;;;;26.25;7.40;;;13.50;99.90;;;;;;5060858;28;20049;-68
2021/08/09 04:41:43;;;;;;;28.52;6.85;;;13.50;99.90;;;;;;5055966;28;20055;-68
2021/08/09 04:44:12;;;;;;;19.60;5.95;;;13.60;99.90;;;;;;5060511;28;20388;-68
2021/08/09 04:46:39;;;;;;;29.38;8.55;;;13.60;99.90;;;;;;5053299;28;20104;-69
2021/08/09 04:49:04;;;;;;;22.50;7.95;;;13.60;99.90;;;;;;5061008;28;20096;-68
2021/08/09 04:51:30;;;;;;;17.58;6.13;;;13.60;99.90;;;;;;5067616;28;20061;-68
2021/08/09 04:53:56;;;;;;;25.45;6.80;;;13.60;99.90;;;;;;5071220;28;20052;-68
2021/08/09 04:56:24;;;;;;;23.17;6.43;;;13.60;99.90;;;;;;5053540;28;20041;-68
2021/08/09 04:58:49;;;;;;;25.17;6.82;;;13.60;99.90;;;;;;5059299;28;20393;-68
2021/08/09 05:01:15;;;;;;;24.58;6.43;;;13.60;99.90;;;;;;5058252;28;20073;-68
2021/08/09 05:03:41;;;;;;;20.27;7.30;;;13.60;99.90;;;;;;5056547;28;20116;-68
2021/08/09 05:06:15;;;;;;;20.02;6.03;;;13.60;99.90;;;;;;5055501;28;20535;-68
2021/08/09 05:08:41;;;;;;;22.92;6.25;;;13.60;99.90;;;;;;5055546;28;20049;-68
2021/08/09 05:11:07;;;;;;;22.42;6.93;;;13.60;99.90;;;;;;5057519;28;20041;-68
2021/08/09 05:13:34;;;;;;;16.45;6.05;;;13.60;99.90;;;;;;5054208;28;20045;-68
2021/08/09 05:16:00;;;;;;;18.13;6.05;;;13.60;99.90;;;;;;5057695;28;20109;-68
2021/08/09 05:18:32;;;;;;;23.98;7.35;;;13.70;99.90;;;;;;5052024;28;20049;-68
2021/08/09 05:20:58;;;;;;;22.35;6.13;;;13.70;99.90;;;;;;5058980;28;20139;-68
2021/08/09 05:23:27;;;;;;;33.25;7.40;;;13.70;99.90;;;;;;5052648;28;20083;-68
2021/08/09 05:25:53;;;;;;;29.85;7.05;;;13.70;99.90;;;;;;5058818;28;20056;-68
2021/08/09 05:28:19;;;;;;;26.05;6.53;;;13.70;99.90;;;;;;5052268;28;20092;-68
2021/08/09 05:30:47;;;;;;;32.92;6.88;;;13.70;99.90;;;;;;5055949;28;20080;-68
2021/08/09 05:33:14;;;;;;;23.95;6.57;;;13.70;99.90;;;;;;5063400;28;20067;-68
2021/08/09 05:35:39;;;;;;;23.33;6.32;;;13.60;99.90;;;;;;5058398;28;20049;-68
2021/08/09 05:38:07;;;;;;;19.83;7.07;;;13.70;99.90;;;;;;5061213;28;20047;-68
2021/08/09 05:40:35;;;;;;;29.23;7.45;;;13.70;99.90;;;;;;5053685;28;20075;-68
2021/08/09 05:43:01;;;;;;;26.00;7.15;;;13.70;99.90;;;;;;5060594;28;20424;-68
2021/08/09 05:45:27;;;;;;;20.95;5.55;;;13.70;99.90;;;;;;5053459;28;20065;-68
2021/08/09 05:47:53;;;;;;;27.98;7.18;;;13.60;99.90;;;;;;5059995;28;20057;-68
2021/08/09 05:50:18;;;;;;;20.63;6.95;;;13.60;99.90;;;;;;5052199;28;20048;-68
2021/08/09 05:52:44;;;;;;;27.00;7.75;;;13.70;99.90;;;;;;5060269;28;20051;-68
2021/08/09 05:55:10;;;;;;;32.58;7.47;;;13.70;99.90;;;;;;5052967;28;20059;-68
2021/08/09 05:57:36;;;;;;;20.70;6.20;;;13.70;99.90;;;;;;5059915;28;20044;-68
2021/08/09 06:00:04;;;;;;;29.10;6.90;;;13.70;99.90;;;;;;5052771;28;20049;-68
2021/08/09 06:02:29;;;;;;;;;;;13.70;99.90;;;;;;5061808;28;20397;-67
2021/08/09 06:04:55;;;;;;;30.13;6.68;;;13.70;99.90;;;;;;5053635;28;19921;-67
2021/08/09 06:07:21;;;;;;;18.42;6.53;;;13.80;99.90;;;;;;5054628;28;20053;-68
2021/08/09 06:09:47;;;;;;;29.65;7.05;;;13.70;99.90;;;;;;5061473;28;20037;-68
2021/08/09 06:12:14;;;;;;;23.13;6.47;;;13.80;99.90;;;;;;5064003;28;20427;-67
2021/08/09 06:14:40;;;;;;;25.75;7.03;;;13.80;99.90;;;;;;5066314;28;20048;-67
2021/08/09 06:17:07;;;;;;;23.20;6.72;;;13.80;99.90;;;;;;5063708;28;20129;-69
2021/08/09 06:19:36;;;;;;;22.08;6.70;;;13.80;99.90;;;;;;5064293;28;20051;-69
2021/08/09 06:22:03;;;;;;;25.02;7.07;;;13.80;99.90;;;;;;5061607;28;20052;-69
2021/08/09 06:24:29;;;;;;;25.95;7.32;;;13.80;99.90;;;;;;5066132;28;20107;-68
2021/08/09 06:26:54;;;;;;;18.50;5.57;;;13.90;99.90;;;;;;5066439;28;20045;-69
2021/08/09 06:29:21;;;;;;;18.98;6.72;;;13.90;99.90;;;;;;5062227;28;20045;-68
2021/08/09 06:31:47;;;;;;;25.50;6.53;;;13.90;99.90;;;;;;5059040;28;20124;-68
2021/08/09 06:34:12;;;;;;;21.80;6.72;;;13.90;99.90;;;;;;5064998;28;20260;-69
2021/08/09 06:36:38;;;;;;;31.55;7.00;;;14.00;99.90;;;;;;5055826;28;20041;-68
2021/08/09 06:39:04;;;;;;;19.55;5.85;;;14.10;99.90;;;;;;5066630;28;20045;-69
2021/08/09 06:41:32;;;;;;;21.70;6.38;;;14.00;99.90;;;;;;5063315;28;20042;-69
2021/08/09 06:43:59;;;;;;;16.80;6.60;;;14.10;99.90;;;;;;5061556;28;20045;-68
2021/08/09 06:46:25;;;;;;;21.40;5.57;;;14.10;99.90;;;;;;5058753;28;20071;-69
2021/08/09 06:48:51;;;;;;;29.40;7.35;;;14.20;99.90;;;;;;5065261;28;20040;-69
2021/08/09 06:51:17;;;;;;;25.42;6.40;;;14.30;99.90;;;;;;5063665;28;20605;-68
2021/08/09 06:53:43;;;;;;;25.13;6.07;;;14.40;99.90;;;;;;5063892;28;20041;-69
2021/08/09 06:56:14;;;;;;;30.13;5.68;;;14.60;99.90;;;;;;5055945;28;20124;-69
2021/08/09 06:58:39;;;;;;;23.67;5.72;;;14.40;99.90;;;;;;5058490;28;20048;-69
2021/08/09 07:01:05;;;;;;;21.15;5.18;;;14.50;99.90;;;;;;5057115;28;20038;-69
2021/08/09 07:03:31;;;;;;;19.90;4.72;;;14.50;99.90;;;;;;5059645;28;20060;-69
2021/08/09 07:05:56;;;;;;;20.65;4.88;;;14.60;99.90;;;;;;5060241;28;20053;-70
2021/08/09 07:08:22;;;;;;;20.15;5.72;;;14.60;99.90;;;;;;5063678;28;20420;-69
2021/08/09 07:10:51;;;;;;;22.77;5.47;;;14.70;99.90;;;;;;5062575;28;20045;-69
2021/08/09 07:13:17;;;;;;;22.33;5.00;;;14.90;99.90;;;;;;5059252;28;20057;-68
2021/08/09 07:15:42;;;;;;;19.33;7.32;;;14.80;99.90;;;;;;5057093;28;20041;-68
2021/08/09 07:18:08;;;;;;;18.58;4.78;;;15.00;99.90;;;;;;5056712;28;20048;-68
2021/08/09 07:20:34;;;;;;;17.67;5.22;;;15.20;99.90;;;;;;5059241;28;20056;-68
2021/08/09 07:23:00;;;;;;;12.80;4.90;;;15.00;99.90;;;;;;5063355;28;20041;-68
2021/08/09 07:25:26;;;;;;;15.05;4.95;;;15.30;99.90;;;;;;5059321;28;20045;-66
2021/08/09 07:27:51;;;;;;;19.17;5.32;;;15.40;99.90;;;;;;5059310;28;20049;-68
2021/08/09 07:30:18;;;;;;;23.17;6.00;;;15.60;99.90;;;;;;5054531;28;20033;-63
2021/08/09 07:32:45;;;;;;;23.10;5.88;;;15.80;99.90;;;;;;5058991;28;20045;-67
2021/08/09 07:35:11;;;;;;;19.77;5.82;;;15.70;99.90;;;;;;5061130;28;20295;-69
2021/08/09 07:37:37;;;;;;;13.80;5.00;;;15.60;99.90;;;;;;5061636;28;20049;-69
2021/08/09 07:40:04;;;;;;;17.13;5.68;;;15.50;99.90;;;;;;5059979;28;20507;-72
2021/08/09 07:42:30;;;;;;;18.35;5.55;;;15.50;99.90;;;;;;5061429;28;20055;-75
2021/08/09 07:44:57;;;;;;;22.92;6.22;;;15.60;99.90;;;;;;5059091;28;20044;-68
2021/08/09 07:47:23;;;;;;;20.20;5.40;;;15.50;99.90;;;;;;5058119;28;20909;-73
2021/08/09 07:49:49;;;;;;;17.15;5.20;;;15.40;99.90;;;;;;5058472;28;20040;-72
2021/08/09 07:52:15;;;;;;;14.13;5.53;;;15.40;99.90;;;;;;5058515;28;20073;-63
2021/08/09 07:54:41;;;;;;;17.63;5.78;;;15.50;99.90;;;;;;5062386;28;20056;-70
2021/08/09 07:57:07;;;;;;;19.88;4.93;;;15.60;99.90;;;;;;5059755;28;20424;-66
2021/08/09 07:59:33;;;;;;;26.20;5.78;;;15.60;99.90;;;;;;5059218;28;20037;-66
2021/08/09 08:02:02;;;;;;;23.45;7.25;;;15.80;99.90;;;;;;5061857;28;20041;-66
2021/08/09 08:04:31;;;;;;;21.88;5.20;;;15.90;99.90;;;;;;5060085;28;20052;-66
2021/08/09 08:06:58;;;;;;;24.63;5.82;;;15.90;99.90;;;;;;5060945;28;20040;-67
2021/08/09 08:09:24;;;;;;;23.88;6.35;;;15.90;99.90;;;;;;5061508;28;20079;-66
2021/08/09 08:11:49;;;;;;;32.90;6.32;;;15.70;99.90;;;;;;5057768;28;20183;-66
2021/08/09 08:14:15;;;;;;;20.25;6.28;;;15.80;99.90;;;;;;5061005;28;20045;-66
2021/08/09 08:16:41;;;;;;;15.70;4.78;;;15.80;99.90;;;;;;5063319;28;20427;-66
2021/08/09 08:19:07;;;;;;;17.73;4.82;;;16.00;99.90;;;;;;5061738;28;20044;-67
2021/08/09 08:21:33;;;;;;;16.08;5.10;;;16.00;99.90;;;;;;5060680;28;20067;-66
2021/08/09 08:23:58;;;;;;;18.23;5.47;;;16.00;99.90;;;;;;5061108;28;20045;-67
2021/08/09 08:26:25;;;;;;;28.25;5.28;;;16.20;99.90;;;;;;5059858;28;20060;-66
2021/08/09 08:28:51;;;;;;;20.77;5.03;;;16.00;99.90;;;;;;5061167;28;20045;-66
2021/08/09 08:31:17;;;;;;;15.07;5.45;;;16.10;99.90;;;;;;5062680;28;20086;-66
2021/08/09 08:33:42;;;;;;;29.05;5.55;;;16.00;99.90;;;;;;5067395;28;20064;-66
2021/08/09 08:36:08;;;;;;;17.60;4.80;;;16.10;99.90;;;;;;5060516;28;20045;-67
2021/08/09 08:38:35;;;;;;;13.75;4.75;;;16.10;99.90;;;;;;5055451;28;20074;-65
2021/08/09 08:41:05;;;;;;;23.42;5.40;;;16.30;99.90;;;;;;5056903;28;20045;-68
2021/08/09 08:43:32;;;;;;;18.58;5.05;;;16.20;99.90;;;;;;5056531;28;20053;-61
2021/08/09 08:46:05;;;;;;;12.45;5.00;;;16.30;99.90;;;;;;5062275;28;20049;-70
2021/08/09 08:48:32;;;;;;;22.83;5.00;;;16.30;99.90;;;;;;5060922;28;20471;-65
2021/08/09 08:51:01;;;;;;;18.50;4.90;;;16.40;99.90;;;;;;5066235;28;20056;-66
2021/08/09 08:53:28;;;;;;;16.25;4.72;;;16.50;99.90;;;;;;5061979;28;20386;-70
2021/08/09 08:55:54;;;;;;;;;;;16.40;99.90;;;;;;5065432;28;20115;-63
2021/08/09 08:58:20;;;;;;;14.57;4.80;;;16.50;99.90;;;;;;5055799;28;19967;-66
2021/08/09 09:00:49;;;;;;;24.40;4.93;;;16.70;99.90;;;;;;5058663;28;20056;-67
2021/08/09 09:03:20;;;;;;;13.75;3.85;;;16.90;99.90;;;;;;5060884;28;20049;-73
2021/08/09 09:05:59;;;;;;;15.73;4.53;;;17.10;99.90;;;;;;5060771;28;20055;-77
2021/08/09 09:08:40;;;;;;;;;;;17.00;99.90;;;;;;5063572;28;20044;-82
2021/08/09 09:11:08;;;;;;;21.33;4.15;;;17.00;99.90;;;;;;5057530;28;19924;-80
2021/08/09 09:13:34;;;;;;;12.05;4.57;;;17.10;99.90;;;;;;5062563;28;20045;-68
2021/08/09 09:16:05;;;;;;;18.45;3.92;;;16.90;99.90;;;;;;5062866;28;20041;-67
2021/08/09 09:18:55;;;;;;;12.07;3.50;;;17.00;99.90;;;;;;5062406;28;20108;-67
2021/08/09 09:21:32;;;;;;;21.30;4.25;;;17.10;99.90;;;;;;5062084;28;20047;-67
2021/08/09 09:24:18;;;;;;;14.68;3.75;;;17.40;99.90;;;;;;5057682;28;20427;-69
2021/08/09 09:26:59;;;;;;;16.98;4.47;;;17.60;99.90;;;;;;5058565;28;20046;-70
2021/08/09 09:29:26;;;;;;;13.95;3.38;;;17.80;99.90;;;;;;5061224;28;20103;-72
2021/08/09 09:31:53;;;;;;;9.48;2.85;;;18.00;99.90;;;;;;5060612;28;20047;-73
2021/08/09 09:34:21;;;;;;;14.70;3.60;;;18.10;99.90;;;;;;5058934;28;20045;-73
2021/08/09 09:36:49;;;;;;;15.73;3.45;;;18.20;99.90;;;;;;5065899;28;20108;-70
2021/08/09 09:39:47;;;;;;;13.40;3.95;;;18.40;99.90;;;;;;5058750;28;20040;-70
2021/08/09 09:42:15;;;;;;;17.58;3.67;;;18.50;99.90;;;;;;5016661;28;20438;-74
2021/08/09 09:44:43;;;;;;;12.27;3.33;;;18.60;99.90;;;;;;5018488;28;20073;-65
2021/08/09 09:47:25;;;;;;;15.07;2.63;;;18.70;99.90;;;;;;5019655;28;20069;-68
2021/08/09 09:49:53;;;;;;;15.18;3.35;;;18.90;99.90;;;;;;5022368;28;20050;-68
2021/08/09 09:52:39;;;;;;;12.65;2.88;;;19.20;99.90;;;;;;5018284;28;20058;-68
2021/08/09 09:55:07;;;;;;;10.07;2.70;;;19.30;99.90;;;;;;5021743;28;20062;-66
2021/08/09 09:57:35;;;;;;;14.70;3.10;;;19.50;99.90;;;;;;5021927;28;20744;-65
2021/08/09 10:00:02;;;;;;;12.38;2.65;;;19.50;99.90;;;;;;5024447;28;20084;-66
2021/08/09 10:02:28;;;;;;;;;;;19.50;99.90;;;;;;5022761;28;20046;-66
2021/08/09 10:04:54;;;;;;;12.52;3.40;;;19.30;99.90;;;;;;5003938;28;19921;-66
2021/08/09 10:07:24;;;;;;;14.45;3.00;;;19.20;99.90;;;;;;5023580;28;20132;-66
2021/08/09 10:09:52;;;;;;;8.57;2.85;;;19.30;99.90;;;;;;5023377;28;20045;-66
2021/08/09 10:12:24;;;;;;;10.82;2.90;;;19.20;99.90;;;;;;5022366;28;20060;-66
2021/08/09 10:14:54;;;;;;;14.18;3.80;;;19.40;99.90;;;;;;5019500;28;20061;-67
2021/08/09 10:17:24;;;;;;;11.55;2.63;;;19.40;99.90;;;;;;5034833;28;20082;-66
2021/08/09 10:19:53;;;;;;;10.48;2.03;;;19.50;99.90;;;;;;5060395;28;20045;-66
2021/08/09 10:22:20;;;;;;;11.32;2.50;;;19.60;99.90;;;;;;5065576;28;20049;-66
2021/08/09 10:24:48;;;;;;;;;;;19.50;99.90;;;;;;5063881;28;20075;-65
2021/08/09 10:27:14;;;;;;;8.07;2.15;;;19.70;99.90;;;;;;5060875;28;19928;-66
2021/08/09 10:29:58;;;;;;;7.03;2.00;;;19.70;99.90;;;;;;5058602;28;20041;-65
2021/08/09 10:32:24;;;;;;;7.13;2.17;;;19.70;99.90;;;;;;5062095;28;20577;-65
2021/08/09 10:34:50;;;;;;;10.35;1.75;;;19.50;99.90;;;;;;5062891;28;20044;-66
2021/08/09 10:37:19;;;;;;;4.88;2.17;;;19.60;99.90;;;;;;5062349;28;20131;-65
2021/08/09 10:39:52;;;;;;;7.55;2.30;;;19.50;99.90;;;;;;5061961;28;20076;-66
2021/08/09 10:42:37;;;;;;;9.70;1.90;;;19.50;99.90;;;;;;5054164;28;20044;-66
2021/08/09 10:45:14;;;;;;;7.78;1.73;;;19.70;99.90;;;;;;5060212;28;20045;-66
2021/08/09 10:47:50;;;;;;;6.55;1.73;;;20.00;99.90;;;;;;5057415;28;20056;-68
2021/08/09 10:50:24;;;;;;;4.93;1.67;;;20.10;99.90;;;;;;5060827;28;20044;-65
2021/08/09 10:52:51;;;;;;;6.65;1.80;;;20.50;99.90;;;;;;5065143;28;20049;-67
2021/08/09 10:55:33;;;;;;;6.63;2.15;;;20.50;99.90;;;;;;5062256;28;20114;-67
2021/08/09 10:58:03;;;;;;;5.43;1.38;;;20.80;99.90;;;;;;5068022;28;20069;-69
2021/08/09 11:00:38;;;;;;;7.40;1.60;;;21.00;99.90;;;;;;5068271;28;20056;-68
2021/08/09 11:03:06;;;;;;;7.95;1.50;;;21.30;99.90;;;;;;5063906;28;20074;-69
2021/08/09 11:05:32;;;;;;;9.15;1.75;;;21.50;99.90;;;;;;5070022;28;20048;-65
2021/08/09 11:08:15;;;;;;;5.75;1.38;;;21.30;99.90;;;;;;5058945;28;20140;-67
2021/08/09 11:11:02;;;;;;;5.93;1.83;;;20.90;99.90;;;;;;5063105;28;20037;-68
2021/08/09 11:13:37;;;;;;;7.60;1.80;;;20.60;99.90;;;;;;5066837;28;20061;-66
2021/08/09 11:16:05;;;;;;;3.50;1.50;;;20.10;99.90;;;;;;5065698;28;20056;-68
2021/08/09 11:18:34;;;;;;;6.20;1.70;;;19.70;99.90;;;;;;5057505;28;20041;-65
2021/08/09 11:21:05;;;;;;;6.70;1.63;;;19.50;99.90;;;;;;5068582;28;20044;-66
2021/08/09 11:23:48;;;;;;;7.65;2.30;;;19.20;99.90;;;;;;5063597;28;20067;-72
2021/08/09 11:26:22;;;;;;;8.00;1.73;;;19.10;99.90;;;;;;5071136;28;20063;-71
2021/08/09 11:29:06;;;;;;;5.75;2.30;;;19.20;99.90;;;;;;5059595;28;20108;-67
2021/08/09 11:31:45;;;;;;;5.63;1.75;;;19.30;99.90;;;;;;5069077;28;20040;-69
2021/08/09 11:34:12;;;;;;;6.78;1.23;;;19.30;99.90;;;;;;5060641;28;20040;-71
2021/08/09 11:36:37;;;;;;;6.50;1.87;;;19.50;99.90;;;;;;5064810;28;20389;-71
2021/08/09 11:39:04;;;;;;;7.25;1.60;;;19.50;99.90;;;;;;5058363;28;20041;-70
2021/08/09 11:41:30;;;;;;;7.73;1.77;;;19.40;99.90;;;;;;5060553;28;20048;-69
2021/08/09 11:44:05;;;;;;;6.38;1.15;;;19.60;99.90;;;;;;5064980;28;20058;-71
2021/08/09 11:46:33;;;;;;;5.82;2.05;;;19.60;99.90;;;;;;5066330;28;20052;-72
2021/08/09 11:48:59;;;;;;;5.90;1.35;;;19.60;99.90;;;;;;5064496;28;20041;-68
2021/08/09 11:51:30;;;;;;;5.57;1.67;;;19.80;99.90;;;;;;5063207;28;20127;-68
2021/08/09 11:53:57;;;;;;;2.67;1.10;;;19.90;99.90;;;;;;5065808;28;20485;-70
2021/08/09 11:56:27;;;;;;;;;;;19.90;99.90;;;;;;5057239;28;20432;-67
2021/08/09 11:58:53;;;;;;;4.93;1.30;;;20.00;99.90;;;;;;5062326;28;19948;-67
2021/08/09 12:01:29;;;;;;;4.20;1.70;;;20.40;99.90;;;;;;5063870;28;20451;-67
2021/08/09 12:04:14;;;;;;;4.97;1.30;;;20.90;99.90;;;;;;5062838;28;20045;-67
2021/08/09 12:06:46;;;;;;;6.28;1.40;;;20.90;99.90;;;;;;5058818;28;20135;-71
2021/08/09 12:09:13;;;;;;;4.18;1.65;;;21.40;99.90;;;;;;5061254;28;20048;-71
2021/08/09 12:11:40;;;;;;;4.97;1.55;;;21.60;99.90;;;;;;5061292;28;20041;-68
2021/08/09 12:14:10;;;;;;;5.82;1.45;;;22.10;99.90;;;;;;5062969;28;20045;-70
2021/08/09 12:16:47;;;;;;;4.28;1.33;;;22.00;99.90;;;;;;5064441;28;20041;-70
2021/08/09 12:19:14;;;;;;;4.13;1.05;;;22.10;99.90;;;;;;5063383;28;20104;-69
2021/08/09 12:21:40;;;;;;;7.13;2.47;;;22.00;99.90;;;;;;5062185;28;20051;-79
2021/08/09 12:24:23;;;;;;;2.35;1.30;;;22.30;99.90;;;;;;5068242;28;20062;-78
2021/08/09 12:26:51;;;;;;;11.10;1.70;;;22.30;99.90;;;;;;5067251;28;20080;-79
2021/08/09 12:29:19;;;;;;;6.40;1.75;;;22.50;99.90;;;;;;5062495;28;20044;-70
2021/08/09 12:31:46;;;;;;;4.35;1.40;;;22.60;99.90;;;;;;5056725;28;20044;-78
2021/08/09 12:34:14;;;;;;;4.47;1.55;;;22.50;99.90;;;;;;5062614;28;20086;-76
2021/08/09 12:36:41;;;;;;;4.63;1.67;;;22.10;99.90;;;;;;5063571;28;20107;-79
2021/08/09 12:39:09;;;;;;;4.20;1.35;;;21.80;99.90;;;;;;5061442;28;20041;-75
2021/08/09 12:41:35;;;;;;;4.07;1.40;;;21.60;99.90;;;;;;5060531;28;20041;-66
2021/08/09 12:44:03;;;;;;;9.60;1.90;;;21.60;99.90;;;;;;5062172;28;20044;-69
2021/08/09 12:46:30;;;;;;;5.35;1.55;;;21.60;99.90;;;;;;5065360;28;20064;-74
2021/08/09 12:48:56;;;;;;;6.38;1.77;;;21.40;99.90;;;;;;5062939;28;20052;-75